Terminal Aerodrome Forecast
Issued by NWS Shreveport, LA

Home | Current Version | Previous Version | Text Only | Print | Product List | Glossary On
Versions: 1 2 3 4 5 6 7 8 9 10 11 12 13 14 15 16 17 18
000
FTUS44 KSHV 201729
TAFGGG
TAF
KGGG 201729Z 2018/2118 16010KT 6SM BR OVC006
     FM210000 16013KT 5SM BR OVC008
     FM210800 18015KT 6SM BR OVC007
     FM211100 16015KT 4SM BR OVC003=

USA.gov is the U.S. government's official web portal to all federal, state and local government web resources and services.